Map

Track Data

SID SEASON NUMBER BASIN SUBBASIN NAME ISO_TIME NATURE LAT LON WMO_WIND WMO_PRES WMO_AGENCY TRACK_TYPE DIST2LAND LANDFALL IFLAG USA_AGENCY USA_ATCF_ID USA_LAT USA_LON USA_RECORD USA_STATUS USA_WIND USA_PRES USA_SSHS USA_R34_NE USA_R34_SE USA_R34_SW USA_R34_NW USA_R50_NE USA_R50_SE USA_R50_SW USA_R50_NW USA_R64_NE USA_R64_SE USA_R64_SW USA_R64_NW USA_POCI USA_ROCI USA_RMW USA_EYE TOKYO_LAT TOKYO_LON TOKYO_GRADE TOKYO_WIND TOKYO_PRES TOKYO_R50_DIR TOKYO_R50_LONG TOKYO_R50_SHORT TOKYO_R30_DIR TOKYO_R30_LONG TOKYO_R30_SHORT TOKYO_LAND CMA_LAT CMA_LON CMA_CAT CMA_WIND CMA_PRES HKO_LAT HKO_LON HKO_CAT HKO_WIND HKO_PRES NEWDELHI_LAT NEWDELHI_LON NEWDELHI_GRADE NEWDELHI_WIND NEWDELHI_PRES NEWDELHI_CI NEWDELHI_DP NEWDELHI_POCI REUNION_LAT REUNION_LON REUNION_TYPE REUNION_WIND REUNION_PRES REUNION_TNUM REUNION_CI REUNION_RMW REUNION_R34_NE REUNION_R34_SE REUNION_R34_SW REUNION_R34_NW REUNION_R50_NE REUNION_R50_SE REUNION_R50_SW REUNION_R50_NW REUNION_R64_NE REUNION_R64_SE REUNION_R64_SW REUNION_R64_NW BOM_LAT BOM_LON BOM_TYPE BOM_WIND BOM_PRES BOM_TNUM BOM_CI BOM_RMW BOM_R34_NE BOM_R34_SE BOM_R34_SW BOM_R34_NW BOM_R50_NE BOM_R50_SE BOM_R50_SW BOM_R50_NW BOM_R64_NE BOM_R64_SE BOM_R64_SW BOM_R64_NW BOM_ROCI BOM_POCI BOM_EYE BOM_POS_METHOD BOM_PRES_METHOD NADI_LAT NADI_LON NADI_CAT NADI_WIND NADI_PRES WELLINGTON_LAT WELLINGTON_LON WELLINGTON_WIND WELLINGTON_PRES DS824_LAT DS824_LON DS824_STAGE DS824_WIND DS824_PRES TD9636_LAT TD9636_LON TD9636_STAGE TD9636_WIND TD9636_PRES TD9635_LAT TD9635_LON TD9635_WIND TD9635_PRES TD9635_ROCI NEUMANN_LAT NEUMANN_LON NEUMANN_CLASS NEUMANN_WIND NEUMANN_PRES MLC_LAT MLC_LON MLC_CLASS MLC_WIND MLC_PRES USA_GUST BOM_GUST BOM_GUST_PER REUNION_GUST REUNION_GUST_PER USA_SEAHGT USA_SEARAD_NE USA_SEARAD_SE USA_SEARAD_SW USA_SEARAD_NW STORM_SPEED STORM_DIR
1980003S15137 1980 3 SP EA PAUL 1980-01-02 18:00:00 TS -14.9000 136.600 25 1000 bom main 67 67 ______O_______ -1 -14.9000 136.600 20 25 1000 2.00000 45 45 4 118
1980003S15137 1980 3 SP EA PAUL 1980-01-02 21:00:00 TS -14.9975 136.787 main 78 44 ______P_______ -1 -14.9975 136.787 20 25 1000 2 4
1980003S15137 1980 3 SP EA PAUL 1980-01-03 00:00:00 TS -14.6600 136.600 25 1001 bom main 44 44 O_____O__OO_O_ jtwc_sh SH061980 -14.0000 136.000 25 -1 -15.1000 137.000 20 25 1001 2.00000 -14.0000 136.000 TC 25 -14.0000 136.000 1 25 -14.0000 136.000 TC 25 45 45 2 13
1980003S15137 1980 3 SP EA PAUL 1980-01-03 03:00:00 TS -14.8124 136.827 main 55 55 P_____P__PP_P_ SH061980 -14.4077 136.407 25 -1 -15.2200 137.250 20 27 1000 -14.4077 136.407 TC 25 -14.3959 136.397 1 -14.4077 136.407 TC 25 6 129
1980003S15137 1980 3 SP EA PAUL 1980-01-03 06:00:00 TS -15.0375 137.078 30 999 bom main 79 79 O_____O__OP_O_ jtwc_sh SH061980 -14.8000 136.800 25 -1 -15.4000 137.500 20 30 999 2.50000 -14.8000 136.800 TC 25 -14.7832 136.786 1 -14.8000 136.800 TC 25 45 45 7 136
1980003S15137 1980 3 SP EA PAUL 1980-01-03 09:00:00 TS -15.3314 137.350 main 79 55 P_____P__PP_P_ SH061980 -15.1649 137.165 25 -1 -15.6700 137.722 20 30 999 -15.1649 137.165 TC 25 -15.1538 137.157 1 -15.1649 137.165 TC 25 8 140
1980003S15137 1980 3 SP EA PAUL 1980-01-03 12:00:00 TS -15.6667 137.633 30 1000 bom main 49 30 O_____O__OO_O_ jtwc_sh SH061980 -15.5000 137.500 25 -1 -16.0000 137.900 20 30 1000 2.50000 -15.5000 137.500 TC 25 -15.5000 137.500 1 -15.5000 137.500 TC 25 45 45 8 142
1980003S15137 1980 3 SP EA PAUL 1980-01-03 15:00:00 TS -15.9969 137.882 main 30 24 P_____P__PP_P_ SH061980 -15.8225 137.823 27 -1 -16.3500 138.008 20 30 998 -15.8225 137.823 TC 27 -15.8141 137.807 1 -15.8225 137.823 TC 27 8 145
1980003S15137 1980 3 SP EA PAUL 1980-01-03 18:00:00 TS -16.2983 138.096 30 997 bom main 30 24 O_____O__OP_O_ jtwc_sh SH061980 -16.1000 138.100 30 -1 -16.7000 138.100 20 30 997 2.50000 -16.1000 138.100 TC 30 -16.0897 138.075 1 -16.1000 138.100 TC 30 45 45 7 144
1980003S15137 1980 3 SP EA PAUL 1980-01-03 21:00:00 TS -16.5517 138.297 main 22 0 P_____P__PP_P_ SH061980 -16.3300 138.330 30 -1 -17.0000 138.243 20 30 997 -16.3300 138.330 TC 30 -16.3205 138.306 1 -16.3300 138.330 TC 30 6 143
1980003S15137 1980 3 SP EA PAUL 1980-01-04 00:00:00 TS -16.7667 138.467 30 998 bom main 0 0 O_____O__OO_O_ jtwc_sh SH061980 -16.5000 138.500 30 -1 -17.3000 138.400 20 30 998 -16.5000 138.500 TC 30 -16.5000 138.500 1 30 -16.5000 138.500 TC 30 45 45 5 145
1980003S15137 1980 3 SP EA PAUL 1980-01-04 03:00:00 TS -16.9697 138.597 main 0 0 P_____P__PP_P_ SH061980 -16.6225 138.608 30 -1 -17.6650 138.550 20 25 997 -16.6225 138.608 TC 30 -16.6211 138.661 1 -16.6225 138.608 TC 30 4 147
1980003S15137 1980 3 SP EA PAUL 1980-01-04 06:00:00 TS -17.1325 138.715 20 997 bom main 0 0 O_____O__OP_O_ jtwc_sh SH061980 -16.7000 138.700 30 -1 -18.0000 138.700 20 20 997 -16.7000 138.700 TC 30 -16.6948 138.788 1 -16.7000 138.700 TC 30 45 45 4 138
1980003S15137 1980 3 SP EA PAUL 1980-01-04 09:00:00 TS -17.2439 138.855 main 0 0 P_____P__PP_P_ SH061980 -16.7575 138.850 30 -1 -18.2225 138.843 20 20 997 -16.7575 138.850 TC 30 -16.7461 138.896 1 -16.7575 138.850 TC 30 3 126
1980003S15137 1980 3 SP EA PAUL 1980-01-04 12:00:00 TS -17.3333 139.000 20 998 bom main 0 0 O_____O__OO_O_ jtwc_sh SH061980 -16.8000 139.000 30 -1 -18.4000 139.000 20 20 998 -16.8000 139.000 TC 30 -16.8000 139.000 1 -16.8000 139.000 TC 30 45 45 3 127
1980003S15137 1980 3 SP EA PAUL 1980-01-04 15:00:00 TS -17.4352 139.127 main 0 0 P_____P__PP_P_ SH061980 -16.8350 139.100 32 -1 -18.6149 139.178 20 20 997 -16.8350 139.100 TC 32 -16.8764 139.105 1 -16.8350 139.100 TC 32 3 129
1980003S15137 1980 3 SP EA PAUL 1980-01-04 18:00:00 TS -17.5437 139.269 20 997 bom main 0 0 O_____O__OP_O_ jtwc_sh SH061980 -16.9000 139.200 35 0 -18.8000 139.400 20 20 997 -16.9000 139.200 TC 35 -16.9623 139.213 1 -16.9000 139.200 TC 35 45 45 4 128
1980003S15137 1980 3 SP EA PAUL 1980-01-04 21:00:00 TS -17.6732 139.450 main 0 0 P_____P__PP_P_ SH061980 -17.0275 139.335 35 0 -18.9450 139.677 20 20 997 -17.0275 139.335 TC 35 -17.0670 139.339 1 -17.0275 139.335 TC 35 5 124
1980003S15137 1980 3 SP EA PAUL 1980-01-05 00:00:00 TS -17.8000 139.667 20 997 bom main 0 0 O_____O__OO_O_ jtwc_sh SH061980 -17.2000 139.500 35 0 -19.0000 140.000 20 20 997 -17.2000 139.500 TC 35 -17.2000 139.500 2 35 -17.2000 139.500 TC 35 45 45 5 118
1980003S15137 1980 3 SP EA PAUL 1980-01-05 03:00:00 TS -17.8989 139.904 main 0 0 P_____P__PP_P_ SH061980 -17.3924 139.678 35 0 -18.9225 140.343 20 22 996 -17.3924 139.678 TC 35 -17.3713 139.706 2 -17.3924 139.678 TC 35 5 112
1980003S15137 1980 3 SP EA PAUL 1980-01-05 06:00:00 TS -17.9950 140.175 25 995 bom main 0 0 O_____O__OP_O_ jtwc_sh SH061980 -17.6000 139.900 35 0 -18.8000 140.700 20 25 995 -17.6000 139.900 TC 35 -17.5700 139.947 2 -17.6000 139.900 TC 35 45 45 6 111
1980003S15137 1980 3 SP EA PAUL 1980-01-05 09:00:00 TS -18.1090 140.482 main 0 0 P_____P__PP_P_ SH061980 -17.8000 140.192 37 0 -18.7349 141.050 20 22 995 -17.8000 140.192 TC 37 -17.7837 140.215 2 -17.8000 140.192 TC 32 6 112
1980003S15137 1980 3 SP EA PAUL 1980-01-05 12:00:00 TS -18.2333 140.800 20 995 bom main 0 0 O_____O__OO_O_ jtwc_sh SH061980 -18.0000 140.500 40 0 -18.7000 141.400 20 20 995 -18.0000 140.500 TC 40 -18.0000 140.500 2 -18.0000 140.500 TC 30 45 45 6 114
1980003S15137 1980 3 SP EA PAUL 1980-01-05 15:00:00 TS -18.3584 141.062 main 0 0 P_____P__PP_P_ SH061980 -18.1999 140.743 40 0 -18.6849 141.750 20 20 995 -18.1999 140.743 TC 40 -18.1807 140.642 2 -18.1999 140.743 TC 27 6 117
1980003S15137 1980 3 SP EA PAUL 1980-01-05 18:00:00 TS -18.4941 141.336 20 995 bom main 0 0 O_____O__OP_O_ jtwc_sh SH061980 -18.4000 141.000 40 0 -18.7000 142.100 20 20 995 -18.4000 141.000 TC 40 -18.3647 140.819 2 -18.4000 141.000 TC 25 45 45 6 118
1980003S15137 1980 3 SP EA PAUL 1980-01-05 21:00:00 TS -18.6351 141.613 main 0 0 P_____P__PP_P_ SH061980 -18.5914 141.223 42 0 -18.7348 142.435 20 20 995 -18.5914 141.223 TC 42 -18.5666 141.136 2 -18.5914 141.223 TC 25 8 114
1980003S15137 1980 3 SP EA PAUL 1980-01-06 00:00:00 TS -18.8000 142.067 20 996 bom main 0 0 O_____O__OO_O_ jtwc_sh SH061980 -18.8000 141.700 45 0 -18.8000 142.800 20 20 996 -18.8000 141.700 TC 45 -18.8000 141.700 2 45 -18.8000 141.700 TC 25 45 45 12 107
1980003S15137 1980 3 SP EA PAUL 1980-01-06 03:00:00 TS -18.9788 142.838 main 0 0 P_____P__PP_P_ SH061980 -19.0278 142.658 47 0 -18.8617 143.161 20 20 995 -19.0278 142.658 TC 47 -19.0662 142.732 2 -19.0278 142.658 TC 25 17 104
1980003S15137 1980 3 SP EA PAUL 1980-01-06 06:00:00 TS -19.2097 143.850 20 995 bom main 0 0 O_____O__OP_O_ jtwc_sh SH061980 -19.3000 143.900 50 0 -19.0000 143.700 20 20 995 -19.3000 143.900 TC 50 -19.3580 144.000 2 -19.3000 143.900 TC 25 45 45 22 104
1980003S15137 1980 3 SP EA PAUL 1980-01-06 09:00:00 TS -19.5150 145.048 main 0 0 P_____P__PP_P_ SH061980 -19.6365 145.274 50 0 -19.2555 144.575 20 20 995 -19.6365 145.274 TC 50 -19.6696 145.318 2 -19.6365 145.274 TC 25 23 107
1980003S15137 1980 3 SP EA PAUL 1980-01-06 12:00:00 TS -19.8667 146.200 20 996 bom main 0 0 O_____O__OO_O_ jtwc_sh SH061980 -20.0000 146.500 50 0 -19.6000 145.600 20 20 996 -20.0000 146.500 TC 50 -20.0000 146.500 2 -20.0000 146.500 TC 25 45 45 20 111
1980003S15137 1980 3 SP EA PAUL 1980-01-06 15:00:00 TS -20.2089 146.989 main 0 0 P_____P__PP_P_ SH061980 -20.3407 147.199 52 0 -19.9547 146.566 20 22 995 -20.3407 147.199 TC 52 -20.3218 147.210 2 -20.3407 147.199 TC 27 15 118
1980003S15137 1980 3 SP EA PAUL 1980-01-06 18:00:00 TS -20.5954 147.645 25 995 bom main 0 0 O_____O__OP_O_ jtwc_sh SH061980 -20.7000 147.700 55 0 -20.4000 147.500 20 25 995 -20.7000 147.700 TC 55 -20.6725 147.772 2 -20.7000 147.700 TC 30 45 45 15 124
1980003S15137 1980 3 SP EA PAUL 1980-01-06 21:00:00 TS -21.0406 148.296 main 0 0 P_____P__PP_P_ SH061980 -21.0761 148.261 57 0 -20.9764 148.336 20 27 995 -21.0761 148.261 TC 57 -21.0624 148.323 2 -21.0761 148.261 TC 32 16 125
1980003S15137 1980 3 SP EA PAUL 1980-01-07 00:00:00 TS -21.5320 149.064 30 995 bom main 0 0 O_____O_OOO_O_ jtwc_sh SH061980 -21.5000 149.000 60 0 -21.6000 149.200 20 30 995 -21.5000 149.000 30 997 -21.5000 149.000 TC 60 -21.5000 149.000 2 60 -21.5000 149.000 TC 35 45 45 20 120
1980003S15137 1980 3 SP EA PAUL 1980-01-07 03:00:00 TS -22.0433 150.161 main 30 11 P_____P_PPP_P_ SH061980 -21.9785 150.132 60 0 -22.1871 150.205 20 35 993 -21.9609 150.298 31 996 -21.9785 150.132 TC 60 -21.9917 150.088 2 -21.9785 150.132 TC 40 24 115
1980003S15137 1980 3 SP EA PAUL 1980-01-07 06:00:00 TS -22.5527 151.373 40 992 bom main 61 61 O_____O_POP_O_ jtwc_sh SH061980 -22.5000 151.400 60 0 -22.7000 151.300 30 40 992 2.50000 -22.4127 151.541 32 996 -22.5000 151.400 TC 60 -22.5211 151.309 2 -22.5000 151.400 TC 45 55 55 24 114
1980003S15137 1980 3 SP EA PAUL 1980-01-07 09:00:00 TS -23.0214 152.554 main 147 144 P_____P_PPP_P_ SH061980 -23.0577 152.590 57 0 -23.0275 152.460 30 40 992 -22.8577 152.663 33 995 -23.0577 152.590 TC 57 -23.0639 152.526 2 -23.0577 152.590 TC 45 23 115
1980003S15137 1980 3 SP EA PAUL 1980-01-07 12:00:00 TS -23.5000 153.600 40 993 bom main 148 135 O_____O_OOO_O_ jtwc_sh SH061980 -23.6000 153.600 55 0 -23.4000 153.600 30 40 993 2.50000 -23.3000 153.600 35 995 -23.6000 153.600 TC 55 -23.6000 153.600 2 -23.6000 153.600 TC 45 55 55 20 120
1980003S15137 1980 3 SP EA PAUL 1980-01-07 15:00:00 TS -23.9979 154.399 main 142 142 P_____P_PPP_P_ SH061980 -24.0487 154.284 50 0 -24.0396 154.660 30 42 991 -23.7521 154.312 36 993 -24.0487 154.284 TC 50 -24.0080 154.313 2 -24.0487 154.284 TC 45 17 128
1980003S15137 1980 3 SP EA PAUL 1980-01-07 18:00:00 TS -24.5404 155.048 45 989 bom main 170 170 O_____O_POP_O_ jtwc_sh SH061980 -24.5000 154.800 45 0 -24.8000 155.600 30 45 989 2.50000 -24.2552 154.867 37 992 -24.5000 154.800 TC 45 -24.4276 154.869 2 -24.5000 154.800 TC 45 64 64 16 134
1980003S15137 1980 3 SP EA PAUL 1980-01-07 21:00:00 TS -25.1041 155.641 main 221 221 P_____P_PPP_P_ SH061980 -24.9668 155.322 45 0 -25.5191 156.397 30 45 990 -24.8560 155.364 38 991 -24.9668 155.322 TC 45 -24.9338 155.365 2 -24.9668 155.322 TC 45 17 139
1980003S15137 1980 3 SP EA PAUL 1980-01-08 00:00:00 TS -25.8000 156.243 45 992 bom main 294 294 O_____O_OOO_O_ jtwc_sh SH061980 -25.6000 155.900 45 0 -26.3000 157.100 30 45 992 2.50000 -25.6000 155.900 40 990 -25.6000 155.900 TC 45 -25.6000 155.900 2 45 -25.6000 155.900 TC 45 64 64 20 142
1980003S15137 1980 3 SP EA PAUL 1980-01-08 03:00:00 TS -26.6982 157.001 main 374 369 P_____P_PPP_P_ SH061980 -26.5102 156.663 45 0 -27.1473 157.824 30 45 993 -26.5419 156.686 41 989 -26.5102 156.663 TC 45 -26.5203 156.685 2 -26.5102 156.663 TC 45 24 145
1980003S15137 1980 3 SP EA PAUL 1980-01-08 06:00:00 TS -27.7451 157.794 45 994 bom main 415 414 O_____O_POP_O_ jtwc_sh SH061980 -27.6000 157.500 45 0 -28.1000 158.500 30 45 994 2.50000 -27.6190 157.528 42 988 -27.6000 157.500 TC 45 -27.5966 157.528 2 -27.6000 157.500 TC 45 64 64 26 148
1980003S15137 1980 3 SP EA PAUL 1980-01-08 09:00:00 TS -28.8917 158.571 main 486 485 P_____P_PPP_P_ SH061980 -28.7423 158.315 47 0 -29.2525 159.166 30 45 992 -28.7612 158.358 43 987 -28.7423 158.315 TC 47 -28.7490 158.357 2 -28.7423 158.315 TC 47 26 151
1980003S15137 1980 3 SP EA PAUL 1980-01-08 12:00:00 TS -29.9923 159.238 45 990 bom main 555 555 O_____O_OOO_O_ jtwc_sh SH061980 -29.9000 159.100 50 0 -30.3000 159.700 30 45 990 2.50000 -29.9000 159.100 45 987 -29.9000 159.100 TC 50 -29.9000 159.100 2 -29.9000 159.100 TC 50 64 64 24 151
1980003S15137 1980 3 SP EA PAUL 1980-01-08 15:00:00 TS -30.9685 159.880 main 643 643 P_____P_PPP_P_ SH061980 -30.9727 159.890 52 0 -30.9698 160.016 30 47 986 -30.9617 159.797 46 986 -30.9727 159.890 TC 52 -30.9617 159.797 2 -30.9727 159.890 TC 52 22 152
1980003S15137 1980 3 SP MM PAUL 1980-01-08 18:00:00 TS -31.9481 160.427 main 696 696 O_____O_POP_O_ jtwc_sh SH061980 -32.0000 160.500 55 0 -31.4000 160.200 51 50 983 -32.0072 160.374 47 986 -32.0000 160.500 TC 55 -32.0072 160.374 2 -32.0000 160.500 TC 55 69 69 22 159
1980003S15137 1980 3 SP MM PAUL 1980-01-08 21:00:00 TS -33.0182 160.821 main 754 754 P_______PPP_P_ SH061980 -33.0142 160.858 57 0 51 -33.0241 160.765 48 985 -33.0142 160.858 TC 57 -33.0241 160.765 2 -33.0142 160.858 TC 57 21 169
1980003S15137 1980 3 SP MM PAUL 1980-01-09 00:00:00 TS -34.0000 160.900 50 985 wellington main 793 793 O_______OOO_O_ jtwc_sh SH061980 -34.0000 160.900 60 0 -34.0000 160.900 50 985 -34.0000 160.900 TC 60 -34.0000 160.900 2 60 -34.0000 160.900 TC 60 20 183
1980003S15137 1980 3 SP MM PAUL 1980-01-09 03:00:00 TS -34.9872 160.694 main 810 805 P_______PPP_P_ SH061980 -34.9798 160.671 60 0 -34.9984 160.729 51 983 -34.9798 160.671 TC 60 -34.9984 160.729 2 -34.9798 160.671 TC 60 20 196
1980003S15137 1980 3 SP MM PAUL 1980-01-09 06:00:00 TS -35.9178 160.236 main 807 807 O_______POP_O_ jtwc_sh SH061980 -35.9000 160.200 60 0 -35.9444 160.290 52 982 -35.9000 160.200 TC 60 -35.9444 160.290 2 -35.9000 160.200 TC 60 20 205
1980003S15137 1980 3 SP EA PAUL 1980-01-09 09:00:00 TS -36.7868 159.655 main 818 775 P_______PPP_P_ SH061980 -36.7826 159.639 60 0 -36.7931 159.680 53 981 -36.7826 159.639 TC 60 -36.7931 159.680 2 -36.7826 159.639 TC 60 19 212
1980003S15137 1980 3 SP EA PAUL 1980-01-09 12:00:00 TS -37.5000 159.000 main 775 732 O_______OOO_O_ jtwc_sh SH061980 -37.5000 159.000 60 0 -37.5000 159.000 55 980 -37.5000 159.000 TC 60 -37.5000 159.000 2 -37.5000 159.000 TC 60 15 220
1980003S15137 1980 3 SP EA PAUL 1980-01-09 15:00:00 TS -37.9698 158.407 main 732 683 P_______PPP_P_ SH061980 -37.9670 158.406 60 0 -37.9739 158.410 53 980 -37.9670 158.406 TC 60 -37.9739 158.410 2 -37.9670 158.406 TC 60 12 230
1980003S15137 1980 3 SP EA PAUL 1980-01-09 18:00:00 TS -38.3069 157.793 main 683 637 O_______POP_O_ jtwc_sh SH061980 -38.3000 157.800 60 0 -38.3173 157.783 52 980 -38.3000 157.800 TC 60 -38.3173 157.783 2 -38.3000 157.800 TC 60 12 237
1980003S15137 1980 3 SP EA PAUL 1980-01-09 21:00:00 TS -38.6182 157.145 main 628 589 P_______PPP_P_ SH061980 -38.6124 157.148 57 0 -38.6269 157.141 51 980 -38.6124 157.148 TC 57 -38.6269 157.141 2 -38.6124 157.148 TC 57 12 236
1980003S15137 1980 3 SP EA PAUL 1980-01-10 00:00:00 TS -39.0000 156.500 main 589 558 O_______OOO_O_ jtwc_sh SH061980 -39.0000 156.500 55 0 -39.0000 156.500 50 980 -39.0000 156.500 TC 55 -39.0000 156.500 2 55 -39.0000 156.500 TC 55 14 225
1980003S15137 1980 3 SP EA PAUL 1980-01-10 03:00:00 TS -39.5861 155.882 main 562 547 P_______PPP_P_ SH061980 -39.6045 155.900 50 0 -39.5586 155.855 47 982 -39.6045 155.900 TC 50 -39.5586 155.855 2 50 -39.6045 155.900 TC 50 16 217
1980003S15137 1980 3 SP EA PAUL 1980-01-10 06:00:00 TS -40.2580 155.265 main 553 527 O_______POP_O_ jtwc_sh SH061980 -40.3000 155.300 45 0 -40.1950 155.213 45 985 -40.3000 155.300 TC 45 -40.1950 155.213 2 45 -40.3000 155.300 TC 45 16 216
1980003S15137 1980 3 SP EA PAUL 1980-01-10 09:00:00 TS -40.9145 154.621 main 519 466 P_______PPP_P_ SH061980 -40.9350 154.641 40 0 -40.8838 154.589 42 987 -40.9350 154.641 TC 40 -40.8838 154.589 2 40 -40.9350 154.641 TC 40 16 215
1980003S15137 1980 3 SP EA PAUL 1980-01-10 12:00:00 TS -41.6000 154.000 main 466 410 O_______OOO_O_ jtwc_sh SH061980 -41.6000 154.000 35 0 -41.6000 154.000 40 990 -41.6000 154.000 TC 35 -41.6000 154.000 2 35 -41.6000 154.000 TC 35 17 212
1980003S15137 1980 3 SP EA PAUL 1980-01-10 15:00:00 TS -42.3575 153.406 main 410 377 P_______PPP_P_ SH061980 -42.3422 153.419 32 -1 -42.3805 153.387 37 991 -42.3422 153.419 TC 32 -42.3805 153.387 2 33 -42.3422 153.419 TC 32 17 209
1980003S15137 1980 3 SP EA PAUL 1980-01-10 18:00:00 TS -43.1281 152.868 main 380 359 O_______POP_O_ jtwc_sh SH061980 -43.1000 152.900 30 -1 -43.1702 152.820 35 993 -43.1000 152.900 TC 30 -43.1702 152.820 2 32 -43.1000 152.900 TC 30 17 206
1980003S15137 1980 3 SP EA PAUL 1980-01-10 21:00:00 TS -43.8803 152.375 main 361 346 P_______PPP_P_ SH061980 -43.8674 152.398 30 -1 -43.8997 152.341 32 995 -43.8674 152.398 TC 30 -43.8997 152.341 2 31 -43.8674 152.398 TC 30 15 204
1980003S15137 1980 3 SP EA PAUL 1980-01-11 00:00:00 TS -44.5000 152.000 main 350 344 O_______OOO_O_ jtwc_sh SH061980 -44.5000 152.000 30 -1 -44.5000 152.000 30 997 -44.5000 152.000 TC 30 -44.5000 152.000 1 30 -44.5000 152.000 TC 30 11 205
1980003S15137 1980 3 SP EA PAUL 1980-01-11 03:00:00 TS -44.8700 151.713 main 349 349 P_______PPP_P_ SH061980 -44.8747 151.701 30 -1 -44.8629 151.731 30 997 -44.8747 151.701 TC 30 -44.8629 151.731 1 28 -44.8747 151.701 TC 30 7 205
1980003S15137 1980 3 SP EA PAUL 1980-01-11 06:00:00 TS -45.1000 151.610 main 355 355 O_______POP_O_ jtwc_sh SH061980 -45.1000 151.600 30 -1 -45.1000 151.624 30 997 -45.1000 151.600 TC 30 -45.1000 151.624 1 27 -45.1000 151.600 TC 30 4 0
1980003S15137 1980 3 SP EA PAUL 1980-01-11 09:00:00 TS -45.2857 151.695 main 375 375 P_______PPP_P_ SH061980 -45.2846 151.688 30 -1 -45.2873 151.705 30 997 -45.2846 151.688 TC 30 -45.2873 151.705 1 26 -45.2846 151.688 TC 30 5 146
1980003S15137 1980 3 SP EA PAUL 1980-01-11 12:00:00 TS -45.5000 152.000 main 407 407 O_______OOO_O_ jtwc_sh SH061980 -45.5000 152.000 30 -1 -45.5000 152.000 30 997 -45.5000 152.000 TC 30 -45.5000 152.000 1 25 -45.5000 152.000 TC 30 8 139
1980003S15137 1980 3 SP EA PAUL 1980-01-11 15:00:00 TS -45.8841 152.425 main 458 458 P_______PPP_P_ SH061980 -45.8767 152.438 27 -1 -45.8952 152.405 30 997 -45.8767 152.438 TC 27 -45.8952 152.405 1 -45.8767 152.438 TC 27 11 137
1980003S15137 1980 3 SP EA PAUL 1980-01-11 18:00:00 TS -46.3066 153.076 main 528 528 O_______POP_O_ jtwc_sh SH061980 -46.3000 153.100 25 -1 -46.3165 153.039 30 997 -46.3000 153.100 TC 25 -46.3165 153.039 1 -46.3000 153.100 TC 25 13 128
1980003S15137 1980 3 SP EA PAUL 1980-01-11 21:00:00 TS -46.6983 153.923 main 604 604 P_______PPP_P_ SH061980 -46.6940 153.936 25 -1 -46.7048 153.904 30 997 -46.6940 153.936 TC 25 -46.7048 153.904 1 -46.6940 153.936 TC 25 15 118
1980003S15137 1980 3 SP EA PAUL 1980-01-12 00:00:00 TS -47.0000 155.000 main 690 690 O_______OOO_O_ jtwc_sh SH061980 -47.0000 155.000 25 -1 -47.0000 155.000 30 997 -47.0000 155.000 TC 25 -47.0000 155.000 1 -47.0000 155.000 TC 25 16 106
1980003S15137 1980 3 SP EA PAUL 1980-01-12 03:00:00 TS -47.1615 156.238 main 778 685 P_______PPP_P_ SH061980 -47.1653 156.188 25 -1 -47.1558 156.313 30 997 -47.1653 156.188 TC 25 -47.1558 156.313 1 -47.1653 156.188 TC 25 18 96
1980003S15137 1980 3 SP EA PAUL 1980-01-12 06:00:00 TS -47.1946 157.677 main 677 564 O_______POP_O_ jtwc_sh SH061980 -47.2000 157.600 25 -1 -47.1864 157.791 30 997 -47.2000 157.600 TC 25 -47.1864 157.791 1 -47.2000 157.600 TC 25 21 89
1980003S15137 1980 3 SP EA PAUL 1980-01-12 09:00:00 TS -47.1295 159.293 main 557 436 P_______PPP_P_ SH061980 -47.1338 159.240 25 -1 -47.1231 159.373 30 997 -47.1338 159.240 TC 25 -47.1231 159.373 1 -47.1338 159.240 TC 25 23 85
1980003S15137 1980 3 SP MM PAUL 1980-01-12 12:00:00 TS -47.0000 161.000 30 997 wellington main 429 O_______OOO_O_ jtwc_sh SH061980 -47.0000 161.000 25 -1 -47.0000 161.000 30 997 -47.0000 161.000 TC 25 -47.0000 161.000 1 -47.0000 161.000 TC 25 23 84

Digital Typhoon Data and Search

About IBTrACS Database

This database is a web-friendly format of International Best Track Archive for Climate Stewardship (IBTrACS), a global best track data archive curated by NOAA dating back to 1842.

Updated: 2021-12-01